sensor_id;sensor_type;location;lat;lon;timestamp;pressure;altitude;pressure_sealevel;temperature;humidity
12879;BME280;20617;49.476;10.986;2023-04-08T00:01:02;98383.31;;;9.11;100.00
12879;BME280;20617;49.476;10.986;2023-04-08T00:03:07;98391.00;;;9.14;100.00
12879;BME280;20617;49.476;10.986;2023-04-08T00:05:15;98385.69;;;9.17;100.00
12879;BME280;20617;49.476;10.986;2023-04-08T00:07:20;98387.38;;;9.18;100.00
12879;BME280;20617;49.476;10.986;2023-04-08T00:09:25;98388.22;;;9.19;100.00
12879;BME280;20617;49.476;10.986;2023-04-08T00:11:30;98385.72;;;9.16;100.00
12879;BME280;20617;49.476;10.986;2023-04-08T00:13:35;98384.28;;;9.07;100.00
12879;BME280;20617;49.476;10.986;2023-04-08T00:15:40;98388.84;;;9.00;100.00
12879;BME280;20617;49.476;10.986;2023-04-08T00:17:45;98389.78;;;8.99;100.00
12879;BME280;20617;49.476;10.986;2023-04-08T00:19:50;98386.41;;;8.96;100.00
12879;BME280;20617;49.476;10.986;2023-04-08T00:21:59;98387.38;;;8.93;100.00
12879;BME280;20617;49.476;10.986;2023-04-08T00:24:04;98387.38;;;8.93;100.00
12879;BME280;20617;49.476;10.986;2023-04-08T00:26:09;98385.84;;;8.88;100.00
12879;BME280;20617;49.476;10.986;2023-04-08T00:28:15;98386.59;;;8.90;100.00
12879;BME280;20617;49.476;10.986;2023-04-08T00:30:20;98392.59;;;8.92;100.00
12879;BME280;20617;49.476;10.986;2023-04-08T00:32:26;98387.38;;;8.93;100.00
12879;BME280;20617;49.476;10.986;2023-04-08T00:34:31;98382.97;;;8.95;100.00
12879;BME280;20617;49.476;10.986;2023-04-08T00:36:36;98384.72;;;8.95;100.00
12879;BME280;20617;49.476;10.986;2023-04-08T00:38:44;98392.72;;;8.89;100.00
12879;BME280;20617;49.476;10.986;2023-04-08T00:40:50;98388.47;;;8.86;100.00
12879;BME280;20617;49.476;10.986;2023-04-08T00:42:56;98387.66;;;8.84;100.00
12879;BME280;20617;49.476;10.986;2023-04-08T00:45:00;98390.44;;;8.79;100.00
12879;BME280;20617;49.476;10.986;2023-04-08T00:47:05;98393.16;;;8.75;100.00
12879;BME280;20617;49.476;10.986;2023-04-08T00:49:10;98386.38;;;8.71;100.00
12879;BME280;20617;49.476;10.986;2023-04-08T00:51:15;98393.47;;;8.66;100.00
12879;BME280;20617;49.476;10.986;2023-04-08T00:53:20;98389.28;;;8.61;100.00
12879;BME280;20617;49.476;10.986;2023-04-08T00:55:29;98394.56;;;8.58;100.00
12879;BME280;20617;49.476;10.986;2023-04-08T00:57:34;98396.59;;;8.49;100.00
12879;BME280;20617;49.476;10.986;2023-04-08T00:59:40;98404.53;;;8.44;100.00
12879;BME280;20617;49.476;10.986;2023-04-08T01:01:50;98401.13;;;8.42;100.00
12879;BME280;20617;49.476;10.986;2023-04-08T01:04:06;98404.63;;;8.41;100.00
12879;BME280;20617;49.476;10.986;2023-04-08T01:06:14;98409.84;;;8.39;100.00
12879;BME280;20617;49.476;10.986;2023-04-08T01:08:24;98404.69;;;8.38;100.00
12879;BME280;20617;49.476;10.986;2023-04-08T01:10:37;98410.09;;;8.30;100.00
12879;BME280;20617;49.476;10.986;2023-04-08T01:12:49;98401.50;;;8.28;100.00
12879;BME280;20617;49.476;10.986;2023-04-08T01:15:00;98404.94;;;8.29;100.00
12879;BME280;20617;49.476;10.986;2023-04-08T01:17:07;98410.13;;;8.29;100.00
12879;BME280;20617;49.476;10.986;2023-04-08T01:19:18;98413.50;;;8.32;100.00
12879;BME280;20617;49.476;10.986;2023-04-08T01:21:26;98415.16;;;8.35;100.00
12879;BME280;20617;49.476;10.986;2023-04-08T01:23:38;98412.44;;;8.39;100.00
12879;BME280;20617;49.476;10.986;2023-04-08T01:25:48;98409.75;;;8.43;100.00
12879;BME280;20617;49.476;10.986;2023-04-08T01:27:54;98409.72;;;8.44;100.00
12879;BME280;20617;49.476;10.986;2023-04-08T01:30:01;98414.84;;;8.46;100.00
12879;BME280;20617;49.476;10.986;2023-04-08T01:32:07;98413.00;;;8.49;100.00
12879;BME280;20617;49.476;10.986;2023-04-08T01:34:14;98417.22;;;8.53;100.00
12879;BME280;20617;49.476;10.986;2023-04-08T01:36:20;98412.75;;;8.57;100.00
12879;BME280;20617;49.476;10.986;2023-04-08T01:38:27;98410.22;;;8.55;100.00
12879;BME280;20617;49.476;10.986;2023-04-08T01:40:33;98409.66;;;8.46;100.00
12879;BME280;20617;49.476;10.986;2023-04-08T01:42:42;98411.59;;;8.39;100.00
12879;BME280;20617;49.476;10.986;2023-04-08T01:44:49;98410.13;;;8.29;100.00
12879;BME280;20617;49.476;10.986;2023-04-08T01:46:55;98406.84;;;8.24;100.00
12879;BME280;20617;49.476;10.986;2023-04-08T01:49:01;98408.63;;;8.22;100.00
12879;BME280;20617;49.476;10.986;2023-04-08T01:51:10;98407.63;;;8.26;100.00
12879;BME280;20617;49.476;10.986;2023-04-08T01:53:16;98406.75;;;8.27;100.00
12879;BME280;20617;49.476;10.986;2023-04-08T01:55:22;98412.78;;;8.27;100.00
12879;BME280;20617;49.476;10.986;2023-04-08T01:57:31;98408.44;;;8.28;100.00
12879;BME280;20617;49.476;10.986;2023-04-08T01:59:41;98404.19;;;8.25;100.00
12879;BME280;20617;49.476;10.986;2023-04-08T02:01:47;98405.94;;;8.25;100.00
12879;BME280;20617;49.476;10.986;2023-04-08T02:03:55;98406.00;;;8.23;100.00
12879;BME280;20617;49.476;10.986;2023-04-08T02:06:02;98412.13;;;8.21;100.00
12879;BME280;20617;49.476;10.986;2023-04-08T02:08:07;98411.41;;;8.15;100.00
12879;BME280;20617;49.476;10.986;2023-04-08T02:10:12;98406.25;;;8.14;100.00
12879;BME280;20617;49.476;10.986;2023-04-08T02:12:17;98407.25;;;8.10;100.00
12879;BME280;20617;49.476;10.986;2023-04-08T02:14:22;98409.38;;;7.97;100.00
12879;BME280;20617;49.476;10.986;2023-04-08T02:16:38;98407.63;;;7.98;100.00
12879;BME280;20617;49.476;10.986;2023-04-08T02:18:55;98412.03;;;7.94;100.00
12879;BME280;20617;49.476;10.986;2023-04-08T02:21:05;98411.97;;;7.97;100.00
12879;BME280;20617;49.476;10.986;2023-04-08T02:23:16;98413.69;;;7.97;100.00
12879;BME280;20617;49.476;10.986;2023-04-08T02:25:24;98411.34;;;7.89;100.00
12879;BME280;20617;49.476;10.986;2023-04-08T02:27:33;98410.97;;;8.01;100.00
12879;BME280;20617;49.476;10.986;2023-04-08T02:29:39;98417.56;;;8.11;100.00
12879;BME280;20617;49.476;10.986;2023-04-08T02:31:49;98417.41;;;8.18;100.00
12879;BME280;20617;49.476;10.986;2023-04-08T02:33:57;98413.78;;;8.23;100.00
12879;BME280;20617;49.476;10.986;2023-04-08T02:36:05;98419.63;;;8.30;100.00
12879;BME280;20617;49.476;10.986;2023-04-08T02:38:10;98422.13;;;8.33;100.00
12879;BME280;20617;49.476;10.986;2023-04-08T02:40:24;98426.38;;;8.35;100.00
12879;BME280;20617;49.476;10.986;2023-04-08T02:42:30;98419.47;;;8.34;100.00
12879;BME280;20617;49.476;10.986;2023-04-08T02:44:35;98428.91;;;8.38;100.00
12879;BME280;20617;49.476;10.986;2023-04-08T02:46:40;98428.91;;;8.37;100.00
12879;BME280;20617;49.476;10.986;2023-04-08T02:48:48;98427.16;;;8.37;100.00
12879;BME280;20617;49.476;10.986;2023-04-08T02:50:53;98424.56;;;8.37;100.00
12879;BME280;20617;49.476;10.986;2023-04-08T02:52:58;98426.31;;;8.37;100.00
12879;BME280;20617;49.476;10.986;2023-04-08T02:55:06;98427.16;;;8.37;100.00
12879;BME280;20617;49.476;10.986;2023-04-08T02:57:13;98432.91;;;8.19;100.00
12879;BME280;20617;49.476;10.986;2023-04-08T02:59:18;98430.59;;;8.10;100.00
12879;BME280;20617;49.476;10.986;2023-04-08T03:01:23;98427.00;;;8.14;100.00
12879;BME280;20617;49.476;10.986;2023-04-08T03:03:28;98427.91;;;8.13;100.00
12879;BME280;20617;49.476;10.986;2023-04-08T03:05:36;98428.66;;;8.16;100.00
12879;BME280;20617;49.476;10.986;2023-04-08T03:07:41;98435.03;;;8.06;100.00
12879;BME280;20617;49.476;10.986;2023-04-08T03:09:46;98433.19;;;8.10;100.00
12879;BME280;20617;49.476;10.986;2023-04-08T03:11:51;98431.34;;;8.13;100.00
12879;BME280;20617;49.476;10.986;2023-04-08T03:13:56;98436.63;;;8.10;100.00
12879;BME280;20617;49.476;10.986;2023-04-08T03:16:01;98434.13;;;8.07;100.00
12879;BME280;20617;49.476;10.986;2023-04-08T03:18:06;98432.28;;;8.11;100.00
12879;BME280;20617;49.476;10.986;2023-04-08T03:20:11;98429.66;;;8.12;100.00
12879;BME280;20617;49.476;10.986;2023-04-08T03:22:19;98429.56;;;8.15;100.00
12879;BME280;20617;49.476;10.986;2023-04-08T03:24:25;98439.00;;;8.18;100.00
12879;BME280;20617;49.476;10.986;2023-04-08T03:26:30;98435.47;;;8.21;100.00
12879;BME280;20617;49.476;10.986;2023-04-08T03:28:35;98439.84;;;8.19;100.00
12879;BME280;20617;49.476;10.986;2023-04-08T03:30:40;98441.69;;;8.15;100.00
12879;BME280;20617;49.476;10.986;2023-04-08T03:32:45;98436.69;;;8.09;100.00
12879;BME280;20617;49.476;10.986;2023-04-08T03:34:50;98454.84;;;8.07;100.00
12879;BME280;20617;49.476;10.986;2023-04-08T03:36:55;98444.59;;;8.03;100.00
12879;BME280;20617;49.476;10.986;2023-04-08T03:39:02;98447.19;;;8.03;100.00
12879;BME280;20617;49.476;10.986;2023-04-08T03:41:07;98444.69;;;8.00;100.00
12879;BME280;20617;49.476;10.986;2023-04-08T03:43:12;98449.19;;;7.94;100.00
12879;BME280;20617;49.476;10.986;2023-04-08T03:45:17;98452.75;;;7.90;100.00
12879;BME280;20617;49.476;10.986;2023-04-08T03:47:22;98444.22;;;7.87;100.00
12879;BME280;20617;49.476;10.986;2023-04-08T03:49:27;98446.88;;;7.84;100.00
12879;BME280;20617;49.476;10.986;2023-04-08T03:51:32;98444.38;;;7.81;100.00
12879;BME280;20617;49.476;10.986;2023-04-08T03:53:37;98441.81;;;7.79;100.00
12879;BME280;20617;49.476;10.986;2023-04-08T03:55:44;98442.63;;;7.81;100.00
12879;BME280;20617;49.476;10.986;2023-04-08T03:57:50;98443.47;;;7.82;100.00
12879;BME280;20617;49.476;10.986;2023-04-08T03:59:55;98448.66;;;7.82;100.00
12879;BME280;20617;49.476;10.986;2023-04-08T04:02:00;98447.97;;;7.77;100.00
12879;BME280;20617;49.476;10.986;2023-04-08T04:04:05;98448.00;;;7.75;100.00
12879;BME280;20617;49.476;10.986;2023-04-08T04:06:10;98452.28;;;7.76;100.00
12879;BME280;20617;49.476;10.986;2023-04-08T04:08:15;98454.88;;;7.76;100.00
12879;BME280;20617;49.476;10.986;2023-04-08T04:10:20;98451.44;;;7.76;100.00
12879;BME280;20617;49.476;10.986;2023-04-08T04:12:28;98454.19;;;7.69;100.00
12879;BME280;20617;49.476;10.986;2023-04-08T04:14:33;98448.09;;;7.70;100.00
12879;BME280;20617;49.476;10.986;2023-04-08T04:16:38;98455.84;;;7.72;100.00
12879;BME280;20617;49.476;10.986;2023-04-08T04:18:43;98456.75;;;7.71;100.00
12879;BME280;20617;49.476;10.986;2023-04-08T04:20:48;98453.53;;;7.63;100.00
12879;BME280;20617;49.476;10.986;2023-04-08T04:22:53;98455.34;;;7.59;100.00
12879;BME280;20617;49.476;10.986;2023-04-08T04:24:58;98462.38;;;7.54;100.00
12879;BME280;20617;49.476;10.986;2023-04-08T04:27:03;98468.66;;;7.45;100.00
12879;BME280;20617;49.476;10.986;2023-04-08T04:29:10;98467.09;;;7.38;100.00
12879;BME280;20617;49.476;10.986;2023-04-08T04:31:18;98464.59;;;7.35;100.00
12879;BME280;20617;49.476;10.986;2023-04-08T04:33:24;98472.53;;;7.29;100.00
12879;BME280;20617;49.476;10.986;2023-04-08T04:35:29;98470.94;;;7.23;100.00
12879;BME280;20617;49.476;10.986;2023-04-08T04:37:34;98478.16;;;7.11;100.00
12879;BME280;20617;49.476;10.986;2023-04-08T04:39:39;98478.34;;;7.03;100.00
12879;BME280;20617;49.476;10.986;2023-04-08T04:41:44;98479.25;;;7.00;100.00
12879;BME280;20617;49.476;10.986;2023-04-08T04:43:50;98479.19;;;7.03;100.00
12879;BME280;20617;49.476;10.986;2023-04-08T04:45:57;98479.94;;;7.09;100.00
12879;BME280;20617;49.476;10.986;2023-04-08T04:48:05;98484.13;;;7.14;100.00
12879;BME280;20617;49.476;10.986;2023-04-08T04:50:09;98478.91;;;7.16;100.00
12879;BME280;20617;49.476;10.986;2023-04-08T04:52:14;98474.28;;;7.27;100.00
12879;BME280;20617;49.476;10.986;2023-04-08T04:54:19;98474.72;;;7.44;100.00
12879;BME280;20617;49.476;10.986;2023-04-08T04:56:24;98479.75;;;7.51;100.00
12879;BME280;20617;49.476;10.986;2023-04-08T04:58:30;98483.03;;;7.57;100.00
12879;BME280;20617;49.476;10.986;2023-04-08T05:00:34;98485.34;;;7.68;100.00
12879;BME280;20617;49.476;10.986;2023-04-08T05:02:42;98479.94;;;7.76;100.00
12879;BME280;20617;49.476;10.986;2023-04-08T05:04:47;98487.53;;;7.82;100.00
12879;BME280;20617;49.476;10.986;2023-04-08T05:06:54;98488.28;;;7.87;100.00
12879;BME280;20617;49.476;10.986;2023-04-08T05:08:59;98492.53;;;7.89;100.00
12879;BME280;20617;49.476;10.986;2023-04-08T05:11:08;98484.66;;;7.92;100.00
12879;BME280;20617;49.476;10.986;2023-04-08T05:13:13;98494.09;;;7.95;100.00
12879;BME280;20617;49.476;10.986;2023-04-08T05:15:18;98490.56;;;7.98;100.00
12879;BME280;20617;49.476;10.986;2023-04-08T05:17:23;98487.84;;;8.02;100.00
12879;BME280;20617;49.476;10.986;2023-04-08T05:19:31;98491.38;;;8.00;100.00
12879;BME280;20617;49.476;10.986;2023-04-08T05:21:36;98493.84;;;8.04;100.00
12879;BME280;20617;49.476;10.986;2023-04-08T05:23:41;98498.91;;;8.09;100.00
12879;BME280;20617;49.476;10.986;2023-04-08T05:25:46;98499.13;;;8.01;100.00
12879;BME280;20617;49.476;10.986;2023-04-08T05:27:51;98502.63;;;7.99;100.00
12879;BME280;20617;49.476;10.986;2023-04-08T05:29:57;98505.97;;;8.02;100.00
12879;BME280;20617;49.476;10.986;2023-04-08T05:32:01;98505.03;;;8.06;100.00
12879;BME280;20617;49.476;10.986;2023-04-08T05:34:07;98510.25;;;8.05;100.00
12879;BME280;20617;49.476;10.986;2023-04-08T05:36:14;98512.88;;;8.03;100.00
12879;BME280;20617;49.476;10.986;2023-04-08T05:38:19;98514.59;;;8.03;100.00
12879;BME280;20617;49.476;10.986;2023-04-08T05:40:24;98510.31;;;8.02;100.00
12879;BME280;20617;49.476;10.986;2023-04-08T05:42:30;98513.75;;;8.02;100.00
12879;BME280;20617;49.476;10.986;2023-04-08T05:44:35;98513.91;;;7.98;100.00
12879;BME280;20617;49.476;10.986;2023-04-08T05:46:42;98521.84;;;7.91;100.00
12879;BME280;20617;49.476;10.986;2023-04-08T05:48:47;98525.47;;;7.86;100.00
12879;BME280;20617;49.476;10.986;2023-04-08T05:50:52;98528.72;;;7.92;100.00
12879;BME280;20617;49.476;10.986;2023-04-08T05:53:00;98522.56;;;7.97;100.00
12879;BME280;20617;49.476;10.986;2023-04-08T05:55:08;98525.28;;;7.92;100.00
12879;BME280;20617;49.476;10.986;2023-04-08T05:57:14;98521.78;;;7.94;100.00
12879;BME280;20617;49.476;10.986;2023-04-08T05:59:18;98523.56;;;7.91;100.00
12879;BME280;20617;49.476;10.986;2023-04-08T06:01:23;98532.16;;;7.93;100.00
12879;BME280;20617;49.476;10.986;2023-04-08T06:03:29;98535.94;;;7.81;100.00
12879;BME280;20617;49.476;10.986;2023-04-08T06:05:34;98533.94;;;7.91;100.00
12879;BME280;20617;49.476;10.986;2023-04-08T06:07:39;98538.09;;;7.97;100.00
12879;BME280;20617;49.476;10.986;2023-04-08T06:09:47;98536.34;;;7.99;100.00
12879;BME280;20617;49.476;10.986;2023-04-08T06:11:52;98539.75;;;8.01;100.00
12879;BME280;20617;49.476;10.986;2023-04-08T06:13:58;98542.34;;;8.01;100.00
12879;BME280;20617;49.476;10.986;2023-04-08T06:16:09;98544.00;;;8.03;100.00
12879;BME280;20617;49.476;10.986;2023-04-08T06:18:15;98548.31;;;8.03;100.00
12879;BME280;20617;49.476;10.986;2023-04-08T06:20:20;98550.47;;;7.87;100.00
12879;BME280;20617;49.476;10.986;2023-04-08T06:22:25;98555.44;;;7.62;100.00
12879;BME280;20617;49.476;10.986;2023-04-08T06:24:30;98556.19;;;7.67;100.00
12879;BME280;20617;49.476;10.986;2023-04-08T06:26:38;98564.84;;;7.66;100.00
12879;BME280;20617;49.476;10.986;2023-04-08T06:28:43;98556.00;;;7.75;100.00
12879;BME280;20617;49.476;10.986;2023-04-08T06:30:48;98550.47;;;7.87;100.00
12879;BME280;20617;49.476;10.986;2023-04-08T06:32:53;98557.34;;;7.88;100.00
12879;BME280;20617;49.476;10.986;2023-04-08T06:34:58;98563.00;;;7.71;100.00
12879;BME280;20617;49.476;10.986;2023-04-08T06:37:06;98569.44;;;7.55;100.00
12879;BME280;20617;49.476;10.986;2023-04-08T06:39:11;98573.78;;;7.54;100.00
12879;BME280;20617;49.476;10.986;2023-04-08T06:41:17;98571.53;;;7.40;100.00
12879;BME280;20617;49.476;10.986;2023-04-08T06:43:26;98579.38;;;7.37;100.00
12879;BME280;20617;49.476;10.986;2023-04-08T06:45:31;98578.13;;;7.16;100.00
12879;BME280;20617;49.476;10.986;2023-04-08T06:47:36;98580.91;;;7.09;100.00
12879;BME280;20617;49.476;10.986;2023-04-08T06:49:41;98594.00;;;7.01;100.00
12879;BME280;20617;49.476;10.986;2023-04-08T06:51:47;98602.72;;;6.97;100.00
12879;BME280;20617;49.476;10.986;2023-04-08T06:53:53;98601.97;;;6.92;100.00
12879;BME280;20617;49.476;10.986;2023-04-08T06:55:58;98596.22;;;6.79;100.00
12879;BME280;20617;49.476;10.986;2023-04-08T06:58:02;98602.38;;;6.73;100.00
12879;BME280;20617;49.476;10.986;2023-04-08T07:00:11;98604.13;;;6.71;100.00
12879;BME280;20617;49.476;10.986;2023-04-08T07:02:16;98613.69;;;6.69;100.00
12879;BME280;20617;49.476;10.986;2023-04-08T07:04:23;98610.72;;;6.86;100.00
12879;BME280;20617;49.476;10.986;2023-04-08T07:06:28;98608.81;;;6.96;100.00
12879;BME280;20617;49.476;10.986;2023-04-08T07:08:33;98615.38;;;7.09;100.00
12879;BME280;20617;49.476;10.986;2023-04-08T07:10:38;98617.47;;;6.93;100.00
12879;BME280;20617;49.476;10.986;2023-04-08T07:12:43;98621.47;;;7.08;100.00
12879;BME280;20617;49.476;10.986;2023-04-08T07:14:48;98621.13;;;7.23;100.00
12879;BME280;20617;49.476;10.986;2023-04-08T07:16:56;98632.66;;;7.10;100.00
12879;BME280;20617;49.476;10.986;2023-04-08T07:19:01;98630.53;;;7.28;100.00
12879;BME280;20617;49.476;10.986;2023-04-08T07:21:06;98629.41;;;7.39;100.00
12879;BME280;20617;49.476;10.986;2023-04-08T07:23:11;98625.13;;;7.37;100.00
12879;BME280;20617;49.476;10.986;2023-04-08T07:25:16;98632.00;;;7.39;100.00
12879;BME280;20617;49.476;10.986;2023-04-08T07:27:22;98637.47;;;7.25;100.00
12879;BME280;20617;49.476;10.986;2023-04-08T07:29:27;98635.84;;;7.21;100.00
12879;BME280;20617;49.476;10.986;2023-04-08T07:31:32;98637.16;;;7.39;100.00
12879;BME280;20617;49.476;10.986;2023-04-08T07:33:40;98639.75;;;7.39;100.00
12879;BME280;20617;49.476;10.986;2023-04-08T07:35:45;98637.78;;;7.51;100.00
12879;BME280;20617;49.476;10.986;2023-04-08T07:37:50;98640.13;;;7.60;100.00
12879;BME280;20617;49.476;10.986;2023-04-08T07:39:56;98642.88;;;7.54;100.00
12879;BME280;20617;49.476;10.986;2023-04-08T07:42:01;98631.09;;;7.40;100.00
12879;BME280;20617;49.476;10.986;2023-04-08T07:44:06;98638.53;;;7.54;100.00
12879;BME280;20617;49.476;10.986;2023-04-08T07:46:11;98636.63;;;7.62;100.00
12879;BME280;20617;49.476;10.986;2023-04-08T07:48:16;98640.38;;;7.51;100.00
12879;BME280;20617;49.476;10.986;2023-04-08T07:50:24;98648.97;;;7.51;100.00
12879;BME280;20617;49.476;10.986;2023-04-08T07:52:29;98651.72;;;7.45;100.00
12879;BME280;20617;49.476;10.986;2023-04-08T07:54:33;98649.44;;;7.30;100.00
12879;BME280;20617;49.476;10.986;2023-04-08T07:56:38;98652.09;;;7.28;100.00
12879;BME280;20617;49.476;10.986;2023-04-08T07:58:45;98654.50;;;7.36;100.00
12879;BME280;20617;49.476;10.986;2023-04-08T08:00:54;98654.41;;;7.40;100.00
12879;BME280;20617;49.476;10.986;2023-04-08T08:03:00;98661.94;;;7.49;100.00
12879;BME280;20617;49.476;10.986;2023-04-08T08:05:06;98661.31;;;7.40;100.00
12879;BME280;20617;49.476;10.986;2023-04-08T08:07:14;98663.97;;;7.37;100.00
12879;BME280;20617;49.476;10.986;2023-04-08T08:09:19;98669.72;;;7.49;100.00
12879;BME280;20617;49.476;10.986;2023-04-08T08:11:24;98664.53;;;7.49;100.00
12879;BME280;20617;49.476;10.986;2023-04-08T08:13:30;98664.38;;;7.57;100.00
12879;BME280;20617;49.476;10.986;2023-04-08T08:15:36;98670.03;;;7.36;100.00
12879;BME280;20617;49.476;10.986;2023-04-08T08:17:41;98668.97;;;7.44;100.00
12879;BME280;20617;49.476;10.986;2023-04-08T08:19:49;98670.47;;;7.55;100.00
12879;BME280;20617;49.476;10.986;2023-04-08T08:21:54;98676.22;;;7.67;100.00
12879;BME280;20617;49.476;10.986;2023-04-08T08:24:02;98669.97;;;7.76;100.00
12879;BME280;20617;49.476;10.986;2023-04-08T08:26:08;98674.16;;;7.82;100.00
12879;BME280;20617;49.476;10.986;2023-04-08T08:28:13;98675.78;;;7.86;100.00
12879;BME280;20617;49.476;10.986;2023-04-08T08:30:18;98676.56;;;7.89;100.00
12879;BME280;20617;49.476;10.986;2023-04-08T08:32:23;98678.09;;;7.97;100.00
12879;BME280;20617;49.476;10.986;2023-04-08T08:34:28;98680.69;;;7.97;100.00
12879;BME280;20617;49.476;10.986;2023-04-08T08:36:34;98679.75;;;8.01;100.00
12879;BME280;20617;49.476;10.986;2023-04-08T08:38:39;98682.34;;;7.99;100.00
12879;BME280;20617;49.476;10.986;2023-04-08T08:40:53;98681.44;;;8.02;100.00
12879;BME280;20617;49.476;10.986;2023-04-08T08:42:58;98683.00;;;8.09;100.00
12879;BME280;20617;49.476;10.986;2023-04-08T08:45:04;98679.81;;;7.98;100.00
12879;BME280;20617;49.476;10.986;2023-04-08T08:47:09;98678.47;;;7.81;100.00
12879;BME280;20617;49.476;10.986;2023-04-08T08:49:14;98688.00;;;7.81;100.00
12879;BME280;20617;49.476;10.986;2023-04-08T08:51:20;98692.03;;;7.92;100.00
12879;BME280;20617;49.476;10.986;2023-04-08T08:53:28;98687.09;;;7.83;100.00
12879;BME280;20617;49.476;10.986;2023-04-08T08:55:36;98687.53;;;7.99;100.00
12879;BME280;20617;49.476;10.986;2023-04-08T08:58:05;98687.88;;;8.20;100.00
12879;BME280;20617;49.476;10.986;2023-04-08T09:00:12;98696.38;;;8.26;100.00
12879;BME280;20617;49.476;10.986;2023-04-08T09:02:25;98693.88;;;8.23;100.00
12879;BME280;20617;49.476;10.986;2023-04-08T09:04:31;98690.38;;;8.24;100.00
12879;BME280;20617;49.476;10.986;2023-04-08T09:06:36;98689.88;;;8.10;100.00
12879;BME280;20617;49.476;10.986;2023-04-08T09:08:41;98702.75;;;8.13;100.00
12879;BME280;20617;49.476;10.986;2023-04-08T09:10:46;98704.13;;;8.28;100.00
12879;BME280;20617;49.476;10.986;2023-04-08T09:12:54;98695.66;;;8.20;100.00
12879;BME280;20617;49.476;10.986;2023-04-08T09:15:07;98701.19;;;8.42;100.00
12879;BME280;20617;49.476;10.986;2023-04-08T09:17:12;98697.38;;;8.55;100.00
12879;BME280;20617;49.476;10.986;2023-04-08T09:19:18;98693.28;;;8.46;100.00
12879;BME280;20617;49.476;10.986;2023-04-08T09:21:23;98697.31;;;8.24;100.00
12879;BME280;20617;49.476;10.986;2023-04-08T09:23:37;98711.63;;;8.04;100.00
12879;BME280;20617;49.476;10.986;2023-04-08T09:25:43;98709.47;;;8.20;100.00
12879;BME280;20617;49.476;10.986;2023-04-08T09:27:48;98708.69;;;8.18;100.00
12879;BME280;20617;49.476;10.986;2023-04-08T09:30:14;98727.16;;;8.40;100.00
12879;BME280;20617;49.476;10.986;2023-04-08T09:32:20;98712.25;;;8.50;100.00
12879;BME280;20617;49.476;10.986;2023-04-08T09:34:26;98706.81;;;8.57;100.00
12879;BME280;20617;49.476;10.986;2023-04-08T09:36:33;98712.41;;;8.44;100.00
12879;BME280;20617;49.476;10.986;2023-04-08T09:38:38;98715.94;;;8.41;100.00
12879;BME280;20617;49.476;10.986;2023-04-08T09:40:43;98715.75;;;8.47;100.00
12879;BME280;20617;49.476;10.986;2023-04-08T09:42:51;98721.91;;;8.43;100.00
12879;BME280;20617;49.476;10.986;2023-04-08T09:44:58;98724.47;;;8.45;100.00
12879;BME280;20617;49.476;10.986;2023-04-08T09:47:14;98715.72;;;8.49;100.00
12879;BME280;20617;49.476;10.986;2023-04-08T09:49:25;98721.63;;;8.54;100.00
12879;BME280;20617;49.476;10.986;2023-04-08T09:51:35;98719.63;;;8.64;100.00
12879;BME280;20617;49.476;10.986;2023-04-08T09:53:46;98721.28;;;8.68;100.00
12879;BME280;20617;49.476;10.986;2023-04-08T09:55:54;98715.22;;;8.67;100.00
12879;BME280;20617;49.476;10.986;2023-04-08T09:58:03;98715.16;;;8.70;100.00
12879;BME280;20617;49.476;10.986;2023-04-08T10:00:13;98716.75;;;8.74;100.00
12879;BME280;20617;49.476;10.986;2023-04-08T10:02:28;98718.50;;;8.74;100.00
12879;BME280;20617;49.476;10.986;2023-04-08T10:04:44;98718.28;;;8.49;100.00
12879;BME280;20617;49.476;10.986;2023-04-08T10:06:57;98720.91;;;8.49;100.00
12879;BME280;20617;49.476;10.986;2023-04-08T10:09:06;98724.22;;;8.54;100.00
12879;BME280;20617;49.476;10.986;2023-04-08T10:11:11;98720.03;;;8.50;100.00
12879;BME280;20617;49.476;10.986;2023-04-08T10:13:18;98715.63;;;8.52;100.00
12879;BME280;20617;49.476;10.986;2023-04-08T10:15:25;98719.16;;;8.49;100.00
12879;BME280;20617;49.476;10.986;2023-04-08T10:17:33;98717.69;;;8.37;100.00
12879;BME280;20617;49.476;10.986;2023-04-08T10:19:39;98717.44;;;8.48;100.00
12879;BME280;20617;49.476;10.986;2023-04-08T10:21:45;98717.66;;;8.73;100.00
12879;BME280;20617;49.476;10.986;2023-04-08T10:23:55;98716.16;;;8.96;100.00
12879;BME280;20617;49.476;10.986;2023-04-08T10:26:32;98710.81;;;9.02;100.00
12879;BME280;20617;49.476;10.986;2023-04-08T10:28:37;98701.44;;;8.96;100.00
12879;BME280;20617;49.476;10.986;2023-04-08T10:30:43;98709.69;;;9.11;100.00
12879;BME280;20617;49.476;10.986;2023-04-08T10:32:51;98708.56;;;9.19;100.00
12879;BME280;20617;49.476;10.986;2023-04-08T10:34:57;98708.84;;;9.40;100.00
12879;BME280;20617;49.476;10.986;2023-04-08T10:37:02;98705.56;;;9.61;100.00
12879;BME280;20617;49.476;10.986;2023-04-08T10:39:07;98704.22;;;9.78;100.00
12879;BME280;20617;49.476;10.986;2023-04-08T10:41:12;98701.25;;;9.88;100.00
12879;BME280;20617;49.476;10.986;2023-04-08T10:43:22;98694.25;;;9.90;100.00
12879;BME280;20617;49.476;10.986;2023-04-08T10:45:28;98696.84;;;9.90;100.00
12879;BME280;20617;49.476;10.986;2023-04-08T10:47:32;98704.75;;;9.59;100.00
12879;BME280;20617;49.476;10.986;2023-04-08T10:49:40;98703.25;;;9.52;100.00
12879;BME280;20617;49.476;10.986;2023-04-08T10:51:45;98700.59;;;9.53;100.00
12879;BME280;20617;49.476;10.986;2023-04-08T10:53:51;98692.47;;;9.64;100.00
12879;BME280;20617;49.476;10.986;2023-04-08T10:56:02;98700.81;;;9.74;100.00
12879;BME280;20617;49.476;10.986;2023-04-08T10:58:09;98696.78;;;9.65;100.00
12879;BME280;20617;49.476;10.986;2023-04-08T11:00:18;98693.72;;;9.81;100.00
12879;BME280;20617;49.476;10.986;2023-04-08T11:02:31;98698.59;;;9.90;100.00